createdAt,value
2022-07-27T00:00:47.250Z,23.21
2022-07-27T00:03:13.915Z,23.16
2022-07-27T00:05:40.522Z,23.18
2022-07-27T00:08:07.272Z,23.16
2022-07-27T00:10:34.548Z,23.07
2022-07-27T00:13:01.050Z,23.01
2022-07-27T00:15:27.643Z,23.05
2022-07-27T00:17:55.427Z,22.86
2022-07-27T00:20:22.997Z,22.91
2022-07-27T00:22:54.653Z,23.06
2022-07-27T00:25:23.018Z,23.04
2022-07-27T00:27:49.822Z,22.89
2022-07-27T00:30:16.773Z,22.95
2022-07-27T00:32:43.473Z,22.96
2022-07-27T00:35:10.799Z,22.66
2022-07-27T00:37:37.438Z,22.74
2022-07-27T00:40:05.269Z,22.45
2022-07-27T00:42:31.899Z,22.35
2022-07-27T00:44:58.714Z,22.48
2022-07-27T00:47:25.826Z,22.51
2022-07-27T00:49:52.349Z,22.35
2022-07-27T00:52:19.814Z,22.46
2022-07-27T00:54:47.936Z,22.55
2022-07-27T00:57:16.458Z,22.63
2022-07-27T00:59:43.131Z,22.65
2022-07-27T01:02:11.902Z,22.69
2022-07-27T01:04:39.462Z,22.69
2022-07-27T01:07:06.906Z,22.71
2022-07-27T01:09:52.762Z,22.71
2022-07-27T01:12:20.985Z,22.67
2022-07-27T01:14:49.172Z,22.65
2022-07-27T01:17:16.443Z,22.64
2022-07-27T01:19:43.414Z,22.57
2022-07-27T01:22:10.426Z,22.62
2022-07-27T01:24:37.315Z,22.65
2022-07-27T01:27:05.057Z,22.64
2022-07-27T01:29:33.432Z,22.62
2022-07-27T01:32:01.237Z,22.58
2022-07-27T01:34:27.797Z,22.52
2022-07-27T01:36:54.467Z,22.43
2022-07-27T01:39:21.155Z,22.43
2022-07-27T01:41:47.719Z,22.36
2022-07-27T01:44:14.293Z,22.18
2022-07-27T01:46:41.203Z,21.97
2022-07-27T01:49:08.162Z,21.88
2022-07-27T01:51:35.029Z,21.89
2022-07-27T01:54:01.666Z,21.98
2022-07-27T01:56:28.297Z,22.06
2022-07-27T01:58:55.351Z,22.13
2022-07-27T02:01:22.062Z,22.13
2022-07-27T02:03:48.698Z,22.11
2022-07-27T02:06:15.324Z,22.02
2022-07-27T02:08:41.939Z,22.10
2022-07-27T02:11:27.051Z,22.02
2022-07-27T02:13:53.703Z,21.89
2022-07-27T02:16:20.594Z,21.98
2022-07-27T02:18:48.894Z,21.87
2022-07-27T02:21:15.756Z,21.92
2022-07-27T02:23:45.042Z,21.94
2022-07-27T02:26:11.572Z,21.79
2022-07-27T02:28:38.081Z,21.75
2022-07-27T02:31:04.686Z,21.48
2022-07-27T02:33:31.359Z,21.43
2022-07-27T02:35:57.944Z,21.46
2022-07-27T02:38:24.451Z,21.49
2022-07-27T02:40:51.006Z,21.57
2022-07-27T02:43:17.490Z,21.69
2022-07-27T02:45:44.035Z,21.75
2022-07-27T02:48:13.151Z,21.71
2022-07-27T02:50:39.712Z,21.70
2022-07-27T02:53:06.192Z,21.80
2022-07-27T02:55:32.770Z,21.74
2022-07-27T02:57:59.317Z,21.52
2022-07-27T03:00:25.965Z,21.36
2022-07-27T03:02:52.535Z,21.22
2022-07-27T03:05:19.550Z,21.26
2022-07-27T03:07:46.417Z,20.74
2022-07-27T03:10:13.109Z,21.10
2022-07-27T03:12:40.035Z,21.04
2022-07-27T03:15:07.148Z,21.21
2022-07-27T03:17:33.721Z,21.33
2022-07-27T03:20:00.366Z,21.33
2022-07-27T03:22:30.809Z,21.43
2022-07-27T03:24:57.555Z,21.46
2022-07-27T03:27:24.202Z,21.49
2022-07-27T03:29:50.816Z,21.50
2022-07-27T03:32:17.463Z,21.48
2022-07-27T03:34:44.124Z,21.48
2022-07-27T03:37:13.532Z,21.40
2022-07-27T03:39:40.105Z,21.15
2022-07-27T03:42:06.923Z,20.99
2022-07-27T03:44:33.625Z,20.93
2022-07-27T03:47:00.234Z,21.02
2022-07-27T03:49:26.904Z,21.15
2022-07-27T03:51:53.521Z,21.21
2022-07-27T03:54:20.109Z,21.30
2022-07-27T03:56:46.778Z,21.24
2022-07-27T03:59:13.806Z,21.18
2022-07-27T04:01:40.676Z,21.04
2022-07-27T04:04:07.239Z,20.88
2022-07-27T04:06:34.094Z,20.91
2022-07-27T04:09:13.776Z,21.07
2022-07-27T04:11:50.629Z,21.17
2022-07-27T04:14:18.132Z,21.13
2022-07-27T04:16:44.772Z,21.18
2022-07-27T04:19:11.761Z,21.19
2022-07-27T04:21:38.954Z,21.03
2022-07-27T04:24:07.032Z,21.17
2022-07-27T04:26:33.629Z,21.25
2022-07-27T04:29:00.264Z,21.40
2022-07-27T04:31:26.780Z,21.45
2022-07-27T04:33:53.709Z,21.48
2022-07-27T04:36:20.341Z,21.54
2022-07-27T04:38:46.926Z,21.46
2022-07-27T04:41:13.443Z,21.29
2022-07-27T04:43:40.187Z,21.05
2022-07-27T04:46:10.559Z,20.84
2022-07-27T04:48:39.904Z,20.58
2022-07-27T04:51:08.046Z,20.85
2022-07-27T04:53:35.920Z,20.79
2022-07-27T04:56:02.563Z,21.26
2022-07-27T04:58:29.240Z,21.50
2022-07-27T05:00:55.847Z,21.39
2022-07-27T05:03:22.420Z,21.52
2022-07-27T05:05:49.586Z,21.73
2022-07-27T05:08:17.561Z,21.61
2022-07-27T05:10:44.143Z,21.86
2022-07-27T05:13:11.021Z,21.81
2022-07-27T05:15:55.447Z,21.97
2022-07-27T05:18:23.298Z,21.97
2022-07-27T05:20:49.950Z,21.95
2022-07-27T05:23:17.698Z,22.03
2022-07-27T05:25:44.462Z,22.03
2022-07-27T05:28:14.327Z,21.76
2022-07-27T05:30:41.089Z,21.43
2022-07-27T05:33:07.779Z,21.48
2022-07-27T05:35:34.619Z,21.40
2022-07-27T05:38:01.265Z,21.41
2022-07-27T05:40:28.313Z,21.40
2022-07-27T05:42:55.470Z,21.56
2022-07-27T05:45:22.226Z,21.61
2022-07-27T05:47:48.851Z,21.58
2022-07-27T05:50:17.618Z,21.73
2022-07-27T05:52:44.653Z,21.77
2022-07-27T05:55:11.541Z,21.75
2022-07-27T05:57:38.851Z,21.71
2022-07-27T06:00:06.840Z,21.68
2022-07-27T06:02:33.474Z,21.79
2022-07-27T06:05:00.037Z,21.33
2022-07-27T06:07:45.034Z,21.68
2022-07-27T06:10:16.566Z,21.84
2022-07-27T06:12:44.756Z,21.98
2022-07-27T06:15:12.129Z,21.85
2022-07-27T06:17:38.981Z,21.96
2022-07-27T06:20:07.997Z,22.12
2022-07-27T06:22:47.575Z,22.22
2022-07-27T06:25:14.176Z,22.28
2022-07-27T06:27:40.772Z,22.32
2022-07-27T06:30:08.056Z,22.34
2022-07-27T06:32:34.635Z,22.41
2022-07-27T06:35:01.772Z,22.57
2022-07-27T06:37:29.620Z,22.62
2022-07-27T06:39:56.831Z,22.39
2022-07-27T06:42:23.462Z,22.19
2022-07-27T06:44:50.093Z,22.27
2022-07-27T06:47:16.721Z,22.41
2022-07-27T06:49:43.248Z,22.38
2022-07-27T06:52:09.917Z,22.59
2022-07-27T06:54:36.468Z,22.56
2022-07-27T06:57:03.274Z,22.73
2022-07-27T06:59:43.253Z,22.81
2022-07-27T07:02:10.987Z,22.71
2022-07-27T07:04:37.571Z,22.86
2022-07-27T07:07:07.074Z,22.66
2022-07-27T07:09:34.247Z,22.87
2022-07-27T07:12:00.812Z,23.14
2022-07-27T07:14:27.357Z,22.88
2022-07-27T07:16:54.498Z,23.23
2022-07-27T07:19:21.115Z,23.37
2022-07-27T07:21:47.764Z,23.71
2022-07-27T07:24:14.690Z,23.93
2022-07-27T07:26:41.335Z,24.08
2022-07-27T07:29:08.110Z,23.94
2022-07-27T07:31:34.709Z,23.21
2022-07-27T07:34:01.302Z,23.41
2022-07-27T07:36:27.880Z,23.37
2022-07-27T07:38:55.668Z,23.14
2022-07-27T07:41:23.679Z,23.37
2022-07-27T07:43:50.573Z,23.49
2022-07-27T07:46:17.174Z,23.42
2022-07-27T07:48:44.125Z,23.71
2022-07-27T07:51:11.449Z,23.88
2022-07-27T07:53:41.580Z,23.72
2022-07-27T07:56:08.639Z,23.58
2022-07-27T07:58:35.386Z,23.69
2022-07-27T08:01:01.934Z,23.85
2022-07-27T08:03:28.478Z,24.15
2022-07-27T08:05:55.125Z,24.13
2022-07-27T08:08:24.809Z,24.51
2022-07-27T08:10:51.667Z,24.24
2022-07-27T08:13:22.274Z,24.73
2022-07-27T08:15:49.776Z,24.53
2022-07-27T08:18:16.397Z,24.72
2022-07-27T08:20:43.342Z,25.02
2022-07-27T08:23:12.628Z,25.28
2022-07-27T08:25:39.797Z,25.02
2022-07-27T08:28:06.420Z,25.01
2022-07-27T08:30:34.658Z,25.20
2022-07-27T08:33:04.198Z,24.73
2022-07-27T08:35:32.681Z,24.79
2022-07-27T08:37:59.727Z,25.13
2022-07-27T08:40:45.656Z,25.18
2022-07-27T08:43:24.851Z,24.99
2022-07-27T08:46:00.171Z,25.06
2022-07-27T08:48:29.292Z,25.28
2022-07-27T08:50:56.105Z,25.24
2022-07-27T08:53:23.501Z,25.00
2022-07-27T08:55:50.119Z,25.38
2022-07-27T08:58:17.391Z,25.54
2022-07-27T09:00:47.058Z,25.22
2022-07-27T09:03:19.041Z,25.69
2022-07-27T09:05:52.714Z,25.80
2022-07-27T09:08:24.576Z,25.73
2022-07-27T09:10:54.641Z,26.11
2022-07-27T09:13:24.364Z,26.41
2022-07-27T09:18:40.607Z,26.49
2022-07-27T09:21:09.504Z,26.44
2022-07-27T09:23:37.358Z,26.13
2022-07-27T09:26:24.780Z,26.18
2022-07-27T09:29:05.491Z,26.24
2022-07-27T09:31:33.114Z,26.28
2022-07-27T09:34:01.941Z,26.56
2022-07-27T09:36:29.547Z,26.01
2022-07-27T09:39:06.631Z,26.01
2022-07-27T09:41:45.844Z,26.13
2022-07-27T09:44:31.806Z,26.23
2022-07-27T09:46:59.567Z,26.11
2022-07-27T09:49:33.957Z,25.46
2022-07-27T09:52:02.634Z,26.03
2022-07-27T09:54:44.192Z,26.16
2022-07-27T09:57:10.983Z,26.46
2022-07-27T09:59:38.121Z,26.04
2022-07-27T10:02:05.304Z,25.95
2022-07-27T10:04:33.239Z,26.60
2022-07-27T10:07:03.373Z,26.54
2022-07-27T10:09:32.891Z,26.76
2022-07-27T10:11:59.526Z,26.87
2022-07-27T10:14:26.113Z,27.13
2022-07-27T10:16:53.448Z,26.99
2022-07-27T10:19:29.795Z,26.81
2022-07-27T10:21:56.410Z,27.10
2022-07-27T10:24:29.030Z,26.95
2022-07-27T10:26:55.860Z,27.06
2022-07-27T10:29:23.077Z,27.62
2022-07-27T10:31:52.571Z,26.92
2022-07-27T10:34:37.415Z,27.13
2022-07-27T10:37:31.009Z,27.22
2022-07-27T10:40:21.613Z,27.30
2022-07-27T10:42:54.335Z,27.16
2022-07-27T10:45:22.098Z,27.28
2022-07-27T10:47:52.394Z,27.34
2022-07-27T10:50:24.435Z,27.72
2022-07-27T10:52:58.730Z,27.52
2022-07-27T10:55:31.414Z,27.71
2022-07-27T10:58:09.701Z,27.52
2022-07-27T11:00:56.695Z,27.06
2022-07-27T11:03:32.879Z,27.41
2022-07-27T11:09:53.188Z,27.59
2022-07-27T11:11:49.267Z,27.73
2022-07-27T11:14:16.167Z,28.09
2022-07-27T11:16:58.801Z,27.57
2022-07-27T11:19:30.807Z,26.96
2022-07-27T11:21:57.998Z,27.00
2022-07-27T11:24:24.729Z,26.87
2022-07-27T11:26:52.255Z,27.22
2022-07-27T11:29:21.325Z,26.70
2022-07-27T11:31:56.393Z,26.65
2022-07-27T11:34:29.912Z,26.73
2022-07-27T11:37:01.643Z,27.10
2022-07-27T11:42:20.794Z,26.45
2022-07-27T11:44:49.296Z,26.13
2022-07-27T11:47:18.793Z,26.38
2022-07-27T11:49:45.596Z,27.08
2022-07-27T11:52:12.734Z,27.32
2022-07-27T11:54:41.375Z,26.48
2022-07-27T11:57:16.416Z,26.80
2022-07-27T11:59:44.714Z,26.79
2022-07-27T12:02:16.150Z,26.47
2022-07-27T12:04:44.906Z,26.14
2022-07-27T12:07:29.135Z,26.63
2022-07-27T12:09:57.914Z,26.83
2022-07-27T12:12:28.908Z,27.13
2022-07-27T12:14:57.318Z,26.98
2022-07-27T12:17:29.705Z,26.94
2022-07-27T12:20:04.130Z,27.10
2022-07-27T12:22:30.573Z,26.83
2022-07-27T12:24:58.747Z,26.88
2022-07-27T12:27:29.008Z,26.67
2022-07-27T12:30:08.453Z,27.17
2022-07-27T12:32:38.193Z,27.45
2022-07-27T12:35:26.704Z,27.30
2022-07-27T12:38:07.255Z,27.31
2022-07-27T12:40:35.172Z,27.73
2022-07-27T12:43:06.512Z,27.40
2022-07-27T12:45:37.516Z,27.35
2022-07-27T12:48:19.068Z,27.39
2022-07-27T12:50:47.851Z,27.22
2022-07-27T12:53:15.896Z,27.48
2022-07-27T12:55:43.682Z,27.69
2022-07-27T12:58:14.031Z,28.22
2022-07-27T13:00:41.487Z,27.99
2022-07-27T13:03:08.382Z,28.46
2022-07-27T13:05:36.642Z,28.62
2022-07-27T13:08:04.791Z,27.69
2022-07-27T13:10:32.021Z,27.48
2022-07-27T13:12:59.066Z,27.77
2022-07-27T13:15:26.288Z,28.23
2022-07-27T13:17:52.940Z,28.22
2022-07-27T13:20:19.544Z,28.47
2022-07-27T13:22:46.899Z,28.82
2022-07-27T13:25:15.934Z,29.05
2022-07-27T13:27:47.506Z,28.91
2022-07-27T13:30:15.847Z,28.64
2022-07-27T13:32:43.583Z,28.69
2022-07-27T13:35:12.346Z,28.84
2022-07-27T13:37:39.408Z,28.12
2022-07-27T13:40:06.800Z,27.76
2022-07-27T13:42:33.466Z,27.44
2022-07-27T13:45:09.382Z,28.02
2022-07-27T13:47:37.906Z,27.98
2022-07-27T13:50:05.082Z,27.93
2022-07-27T13:52:31.943Z,27.42
2022-07-27T13:54:58.514Z,27.77
2022-07-27T13:57:25.062Z,28.38
2022-07-27T13:59:51.800Z,28.71
2022-07-27T14:02:20.465Z,27.83
2022-07-27T14:04:49.969Z,28.37
2022-07-27T14:07:16.749Z,28.32
2022-07-27T14:10:02.029Z,28.52
2022-07-27T14:12:28.730Z,28.18
2022-07-27T14:14:55.341Z,28.40
2022-07-27T14:17:21.867Z,28.69
2022-07-27T14:19:48.970Z,28.29
2022-07-27T14:22:17.202Z,28.42
2022-07-27T14:24:43.729Z,28.50
2022-07-27T14:27:10.463Z,28.67
2022-07-27T14:29:36.988Z,29.09
2022-07-27T14:32:04.036Z,28.89
2022-07-27T14:34:30.735Z,29.13
2022-07-27T14:36:57.349Z,28.53
2022-07-27T14:39:24.353Z,28.41
2022-07-27T14:41:50.965Z,28.73
2022-07-27T14:44:18.942Z,28.77
2022-07-27T14:46:46.491Z,29.12
2022-07-27T14:49:14.774Z,29.04
2022-07-27T14:51:41.951Z,28.98
2022-07-27T14:54:08.694Z,29.28
2022-07-27T14:56:36.578Z,29.50
2022-07-27T14:59:04.337Z,29.47
2022-07-27T15:01:31.134Z,28.94
2022-07-27T15:03:58.059Z,28.73
2022-07-27T15:06:24.902Z,28.43
2022-07-27T15:08:51.501Z,28.78
2022-07-27T15:11:18.174Z,28.37
2022-07-27T15:13:44.845Z,28.06
2022-07-27T15:16:12.088Z,27.79
2022-07-27T15:18:39.167Z,28.02
2022-07-27T15:21:13.637Z,27.68
2022-07-27T15:23:42.733Z,27.74
2022-07-27T15:26:09.431Z,27.76
2022-07-27T15:28:36.481Z,28.35
2022-07-27T15:31:03.409Z,28.58
2022-07-27T15:33:30.760Z,28.62
2022-07-27T15:35:57.431Z,29.07
2022-07-27T15:38:24.080Z,28.65
2022-07-27T15:40:50.728Z,29.20
2022-07-27T15:43:18.023Z,29.34
2022-07-27T15:45:48.234Z,29.15
2022-07-27T15:48:16.876Z,29.45
2022-07-27T15:50:48.397Z,28.83
2022-07-27T15:53:15.305Z,28.87
2022-07-27T15:55:43.362Z,29.02
2022-07-27T15:58:11.138Z,29.41
2022-07-27T16:00:41.726Z,28.97
2022-07-27T16:03:10.453Z,29.14
2022-07-27T16:05:38.237Z,29.11
2022-07-27T16:08:05.777Z,29.38
2022-07-27T16:10:32.418Z,29.22
2022-07-27T16:13:00.521Z,29.26
2022-07-27T16:15:46.325Z,29.30
2022-07-27T16:18:12.981Z,29.05
2022-07-27T16:20:39.954Z,28.50
2022-07-27T16:23:17.807Z,28.52
2022-07-27T16:26:03.954Z,27.85
2022-07-27T16:28:32.491Z,27.88
2022-07-27T16:30:59.259Z,28.35
2022-07-27T16:33:25.937Z,28.40
2022-07-27T16:35:52.561Z,28.44
2022-07-27T16:38:19.369Z,28.56
2022-07-27T16:40:46.031Z,28.70
2022-07-27T16:43:12.693Z,28.76
2022-07-27T16:45:39.443Z,28.82
2022-07-27T16:48:06.411Z,28.79
2022-07-27T16:50:33.011Z,28.98
2022-07-27T16:52:59.776Z,28.71
2022-07-27T16:55:27.810Z,28.46
2022-07-27T16:57:54.582Z,28.48
2022-07-27T17:00:21.478Z,28.32
2022-07-27T17:02:48.109Z,28.13
2022-07-27T17:05:14.714Z,28.25
2022-07-27T17:07:42.773Z,28.22
2022-07-27T17:10:09.895Z,28.08
2022-07-27T17:12:39.003Z,28.03
2022-07-27T17:15:07.366Z,28.11
2022-07-27T17:17:34.590Z,28.02
2022-07-27T17:20:01.293Z,28.00
2022-07-27T17:22:29.118Z,27.99
2022-07-27T17:24:55.687Z,27.89
2022-07-27T17:27:22.308Z,28.02
2022-07-27T17:29:51.519Z,28.02
2022-07-27T17:32:18.152Z,28.00
2022-07-27T17:34:45.583Z,27.92
2022-07-27T17:37:12.878Z,27.93
2022-07-27T17:39:39.637Z,27.86
2022-07-27T17:42:06.686Z,27.70
2022-07-27T17:44:34.029Z,27.88
2022-07-27T17:47:01.563Z,27.84
2022-07-27T17:49:28.529Z,27.85
2022-07-27T17:51:55.238Z,27.83
2022-07-27T17:54:23.676Z,27.77
2022-07-27T17:56:51.226Z,27.97
2022-07-27T17:59:37.014Z,27.63
2022-07-27T18:02:04.935Z,27.67
2022-07-27T18:04:34.463Z,27.59
2022-07-27T18:07:05.336Z,27.69
2022-07-27T18:09:31.991Z,27.47
2022-07-27T18:11:58.798Z,27.61
2022-07-27T18:14:25.710Z,27.52
2022-07-27T18:16:52.290Z,27.47
2022-07-27T18:19:19.105Z,27.26
2022-07-27T18:21:45.746Z,27.26
2022-07-27T18:24:12.300Z,27.17
2022-07-27T18:26:39.020Z,27.11
2022-07-27T18:29:05.811Z,27.22
2022-07-27T18:31:32.626Z,27.21
2022-07-27T18:33:59.311Z,27.12
2022-07-27T18:36:26.306Z,27.16
2022-07-27T18:38:53.240Z,27.09
2022-07-27T18:41:20.523Z,27.04
2022-07-27T18:43:56.709Z,27.05
2022-07-27T18:46:23.854Z,27.06
2022-07-27T18:48:50.647Z,27.06
2022-07-27T18:51:17.471Z,26.99
2022-07-27T18:53:44.355Z,26.80
2022-07-27T18:56:10.930Z,26.87
2022-07-27T18:58:37.734Z,26.90
2022-07-27T19:01:04.527Z,26.85
2022-07-27T19:03:31.443Z,26.85
2022-07-27T19:05:59.031Z,26.64
2022-07-27T19:08:25.827Z,26.67
2022-07-27T19:10:52.979Z,26.66
2022-07-27T19:13:20.578Z,26.56
2022-07-27T19:15:47.289Z,26.55
2022-07-27T19:18:14.051Z,26.49
2022-07-27T19:20:41.626Z,26.45
2022-07-27T19:23:08.305Z,26.42
2022-07-27T19:25:35.040Z,26.40
2022-07-27T19:28:03.108Z,26.36
2022-07-27T19:30:29.929Z,26.37
2022-07-27T19:32:56.643Z,26.36
2022-07-27T19:35:23.214Z,26.29
2022-07-27T19:37:49.813Z,26.26
2022-07-27T19:43:04.944Z,26.12
2022-07-27T19:45:31.668Z,26.26
2022-07-27T19:47:59.394Z,26.33
2022-07-27T19:50:26.408Z,26.07
2022-07-27T19:52:52.954Z,26.11
2022-07-27T19:55:19.498Z,26.07
2022-07-27T19:57:46.281Z,26.01
2022-07-27T20:00:14.094Z,25.73
2022-07-27T20:02:40.789Z,25.84
2022-07-27T20:05:07.773Z,25.93
2022-07-27T20:07:34.342Z,25.95
2022-07-27T20:10:00.929Z,25.94
2022-07-27T20:12:27.489Z,25.94
2022-07-27T20:14:54.134Z,25.83
2022-07-27T20:17:20.806Z,25.67
2022-07-27T20:19:47.411Z,25.50
2022-07-27T20:22:14.228Z,25.47
2022-07-27T20:24:40.890Z,25.38
2022-07-27T20:27:07.467Z,25.34
2022-07-27T20:29:34.125Z,25.22
2022-07-27T20:32:00.936Z,25.09
2022-07-27T20:34:27.650Z,25.25
2022-07-27T20:36:55.334Z,25.28
2022-07-27T20:39:23.514Z,25.17
2022-07-27T20:41:50.443Z,25.14
2022-07-27T20:44:17.147Z,25.12
2022-07-27T20:46:43.712Z,24.96
2022-07-27T20:49:10.522Z,24.99
2022-07-27T20:51:37.587Z,25.07
2022-07-27T20:54:04.690Z,24.92
2022-07-27T20:56:31.935Z,25.08
2022-07-27T20:58:58.652Z,24.96
2022-07-27T21:01:25.412Z,24.88
2022-07-27T21:03:52.222Z,24.88
2022-07-27T21:06:19.157Z,24.93
2022-07-27T21:08:46.988Z,25.04
2022-07-27T21:11:13.754Z,25.04
2022-07-27T21:13:40.850Z,24.99
2022-07-27T21:16:07.944Z,24.90
2022-07-27T21:18:34.609Z,24.61
2022-07-27T21:21:01.442Z,24.70
2022-07-27T21:23:46.720Z,24.67
2022-07-27T21:26:15.509Z,24.71
2022-07-27T21:28:45.257Z,24.55
2022-07-27T21:31:11.990Z,24.14
2022-07-27T21:33:39.988Z,24.37
2022-07-27T21:36:07.240Z,24.42
2022-07-27T21:38:33.948Z,24.42
2022-07-27T21:41:00.489Z,24.48
2022-07-27T21:43:27.020Z,24.33
2022-07-27T21:45:53.711Z,24.15
2022-07-27T21:48:20.328Z,23.91
2022-07-27T21:50:46.886Z,23.98
2022-07-27T21:53:15.576Z,24.13
2022-07-27T21:55:42.214Z,24.22
2022-07-27T21:58:12.098Z,24.26
2022-07-27T22:00:39.167Z,24.22
2022-07-27T22:03:06.502Z,23.69
2022-07-27T22:05:33.151Z,23.48
2022-07-27T22:08:00.176Z,23.30
2022-07-27T22:10:28.105Z,23.46
2022-07-27T22:12:55.001Z,23.63
2022-07-27T22:15:21.528Z,23.57
2022-07-27T22:17:51.229Z,23.45
2022-07-27T22:20:18.667Z,23.56
2022-07-27T22:22:45.428Z,23.70
2022-07-27T22:25:11.993Z,23.69
2022-07-27T22:27:39.100Z,23.75
2022-07-27T22:30:06.742Z,23.40
2022-07-27T22:32:33.236Z,23.49
2022-07-27T22:35:00.419Z,23.52
2022-07-27T22:37:27.017Z,23.48
2022-07-27T22:39:53.591Z,23.55
2022-07-27T22:42:20.297Z,23.32
2022-07-27T22:44:46.997Z,23.43
2022-07-27T22:47:13.613Z,23.43
2022-07-27T22:49:40.241Z,23.39
2022-07-27T22:52:07.383Z,23.53
2022-07-27T22:54:34.963Z,23.61
2022-07-27T22:57:01.557Z,23.62
2022-07-27T22:59:28.214Z,23.49
2022-07-27T23:01:55.073Z,23.39
2022-07-27T23:04:21.680Z,23.10
2022-07-27T23:06:48.233Z,22.83
2022-07-27T23:09:15.187Z,22.63
2022-07-27T23:11:42.130Z,22.81
2022-07-27T23:14:08.761Z,23.10
2022-07-27T23:16:35.428Z,23.20
2022-07-27T23:19:02.083Z,23.09
2022-07-27T23:21:28.708Z,23.04
2022-07-27T23:23:55.435Z,22.81
2022-07-27T23:26:26.137Z,22.59
2022-07-27T23:28:53.872Z,22.48
2022-07-27T23:31:21.358Z,22.40
2022-07-27T23:33:48.004Z,22.25
2022-07-27T23:36:14.771Z,22.14
2022-07-27T23:38:41.572Z,22.07
2022-07-27T23:41:08.388Z,22.19
2022-07-27T23:43:34.984Z,22.13
2022-07-27T23:46:02.674Z,22.15
2022-07-27T23:48:29.306Z,21.89
2022-07-27T23:50:56.073Z,21.78
2022-07-27T23:53:24.053Z,21.81
2022-07-27T23:55:50.663Z,21.92
2022-07-27T23:58:17.241Z,22.01
